Time;durP1;ratioP1;P1;durP2;ratioP2;P2;SDS_P1;SDS_P2;PMS_P1;PMS_P2;Temp;Humidity;BMP_temperature;BMP_pressure;BME280_temperature;BME280_humidity;BME280_pressure;Samples;Min_cycle;Max_cycle;Signal;HPM_P1;HPM_P2
2022/08/30 00:02:49;;;;;;;4.10;2.95;;;25.50;96.70;;;;;;5050908;28;20472;-75
2022/08/30 00:05:17;;;;;;;4.05;3.10;;;25.50;96.70;;;;;;5040349;28;20098;-75
2022/08/30 00:07:45;;;;;;;3.88;3.10;;;25.40;96.70;;;;;;5049463;28;20469;-75
2022/08/30 00:10:14;;;;;;;4.40;3.40;;;25.30;96.70;;;;;;5036341;28;20135;-75
2022/08/30 00:12:42;;;;;;;3.30;2.78;;;25.20;96.70;;;;;;5053327;28;20052;-74
2022/08/30 00:15:11;;;;;;;3.95;3.00;;;25.10;96.70;;;;;;5037083;28;20111;-75
2022/08/30 00:17:40;;;;;;;3.78;3.13;;;25.20;96.70;;;;;;5042391;28;20045;-75
2022/08/30 00:20:22;;;;;;;3.80;2.80;;;25.10;96.70;;;;;;5036246;28;20068;-75
2022/08/30 00:22:50;;;;;;;3.75;3.13;;;25.00;96.70;;;;;;5037440;28;20044;-75
2022/08/30 00:25:19;;;;;;;4.47;3.83;;;25.20;96.70;;;;;;5036246;28;20068;-75
2022/08/30 00:27:47;;;;;;;4.20;3.67;;;25.20;96.70;;;;;;5041821;28;20396;-75
2022/08/30 00:30:17;;;;;;;4.38;3.53;;;25.10;96.70;;;;;;5035352;28;20155;-75
2022/08/30 00:32:45;;;;;;;7.18;3.60;;;25.20;96.70;;;;;;5063377;28;20122;-75
2022/08/30 00:35:17;;;;;;;6.70;4.30;;;25.20;96.70;;;;;;5051853;28;20051;-75
2022/08/30 00:37:46;;;;;;;5.10;3.83;;;25.20;96.70;;;;;;5048235;28;20414;-75
2022/08/30 00:40:15;;;;;;;7.32;4.05;;;25.20;96.70;;;;;;5036642;28;20042;-75
2022/08/30 00:42:44;;;;;;;5.75;4.28;;;25.10;96.70;;;;;;5037188;28;20045;-75
2022/08/30 00:45:21;;;;;;;6.20;3.97;;;25.10;96.70;;;;;;5046219;28;20127;-75
2022/08/30 00:47:49;;;;;;;7.40;4.30;;;25.00;96.70;;;;;;5040748;28;20048;-75
2022/08/30 00:50:22;;;;;;;4.40;4.00;;;25.00;96.70;;;;;;5050531;28;20532;-75
2022/08/30 00:52:55;;;;;;;8.00;4.25;;;24.90;96.70;;;;;;5041339;28;20041;-75
2022/08/30 00:55:23;;;;;;;6.03;4.05;;;25.00;96.70;;;;;;5038164;28;20051;-75
2022/08/30 00:57:57;;;;;;;4.47;4.00;;;25.00;96.70;;;;;;5056213;28;20049;-75
2022/08/30 01:00:27;;;;;;;5.60;3.92;;;25.00;96.70;;;;;;5050048;28;20049;-75
2022/08/30 01:02:55;;;;;;;5.50;3.80;;;25.00;96.70;;;;;;5022191;28;20434;-75
2022/08/30 01:05:24;;;;;;;5.32;3.72;;;25.00;96.70;;;;;;5041440;28;20433;-75
2022/08/30 01:07:53;;;;;;;5.32;4.10;;;24.90;96.70;;;;;;5046633;28;20053;-75
2022/08/30 01:10:22;;;;;;;7.10;3.60;;;24.80;96.70;;;;;;5049796;28;20040;-75
2022/08/30 01:12:50;;;;;;;4.57;4.03;;;24.80;96.70;;;;;;5042387;28;20041;-75
2022/08/30 01:15:18;;;;;;;5.28;3.80;;;24.80;96.70;;;;;;5039502;28;20054;-75
2022/08/30 01:17:47;;;;;;;6.72;4.07;;;24.80;96.70;;;;;;5049061;28;20556;-76
2022/08/30 01:20:23;;;;;;;5.15;4.05;;;24.70;96.70;;;;;;5056050;28;20464;-76
2022/08/30 01:23:06;;;;;;;7.05;4.10;;;24.60;96.70;;;;;;5036067;28;20585;-75
2022/08/30 01:25:36;;;;;;;4.13;3.42;;;24.50;96.70;;;;;;5038145;28;20044;-75
2022/08/30 01:28:06;;;;;;;6.68;3.90;;;24.50;96.70;;;;;;5057993;28;20975;-75
2022/08/30 01:30:37;;;;;;;7.32;3.80;;;24.50;96.70;;;;;;5043168;28;20055;-75
2022/08/30 01:33:07;;;;;;;4.78;3.33;;;24.40;96.70;;;;;;5037539;28;20053;-76
2022/08/30 01:35:43;;;;;;;5.88;3.42;;;24.50;96.70;;;;;;5059477;28;20041;-75
2022/08/30 01:38:13;;;;;;;5.90;4.17;;;24.50;96.70;;;;;;5042545;28;20049;-75
2022/08/30 01:40:41;;;;;;;4.13;3.38;;;24.60;96.70;;;;;;5067448;28;20187;-75
2022/08/30 01:43:11;;;;;;;5.68;3.40;;;24.60;96.70;;;;;;5057856;28;20040;-75
2022/08/30 01:45:39;;;;;;;5.53;3.13;;;24.50;96.70;;;;;;5053048;28;20045;-75
2022/08/30 01:48:08;;;;;;;3.95;3.20;;;24.50;96.70;;;;;;5045410;28;20041;-75
2022/08/30 01:50:36;;;;;;;5.45;3.95;;;24.50;96.70;;;;;;5056121;28;20072;-76
2022/08/30 01:53:07;;;;;;;4.70;3.38;;;24.50;96.70;;;;;;5045283;28;20048;-76
2022/08/30 01:55:41;;;;;;;3.38;3.08;;;24.50;96.70;;;;;;5055823;28;20051;-75
2022/08/30 01:58:11;;;;;;;4.20;3.50;;;24.40;96.70;;;;;;5051807;28;20051;-75
2022/08/30 02:00:40;;;;;;;4.47;3.05;;;24.50;96.70;;;;;;5046745;28;20044;-76
2022/08/30 02:03:08;;;;;;;5.28;3.53;;;24.50;96.70;;;;;;5039874;28;20048;-75
2022/08/30 02:05:36;;;;;;;5.45;3.35;;;24.40;96.70;;;;;;5047050;28;20079;-75
2022/08/30 02:08:04;;;;;;;3.40;3.10;;;24.50;96.70;;;;;;5056023;28;20043;-75
2022/08/30 02:10:32;;;;;;;6.70;3.40;;;24.50;96.70;;;;;;5053856;28;20086;-75
2022/08/30 02:13:01;;;;;;;4.35;3.38;;;24.60;96.70;;;;;;5026411;28;20040;-77
2022/08/30 02:15:29;;;;;;;5.93;3.25;;;24.50;96.70;;;;;;5030922;28;20589;-75
2022/08/30 02:18:09;;;;;;;4.65;3.42;;;24.60;96.70;;;;;;5055786;28;20063;-75
2022/08/30 02:20:38;;;;;;;4.47;3.42;;;24.60;96.70;;;;;;5037120;28;20796;-75
2022/08/30 02:23:06;;;;;;;4.63;3.38;;;24.50;96.70;;;;;;5040573;28;20068;-75
2022/08/30 02:25:34;;;;;;;3.47;3.03;;;24.50;96.70;;;;;;5042727;28;20219;-73
2022/08/30 02:28:04;;;;;;;3.25;2.70;;;24.50;96.70;;;;;;5045158;28;20563;-74
2022/08/30 02:30:33;;;;;;;4.72;3.13;;;24.50;96.70;;;;;;5033711;28;20136;-74
2022/08/30 02:33:01;;;;;;;5.30;2.90;;;24.50;96.70;;;;;;5058368;28;20047;-75
2022/08/30 02:35:29;;;;;;;5.45;3.00;;;24.40;96.70;;;;;;5044824;28;20048;-74
2022/08/30 02:37:57;;;;;;;4.18;2.83;;;24.40;96.70;;;;;;5042974;28;20048;-74
2022/08/30 02:40:25;;;;;;;3.38;2.95;;;24.30;96.70;;;;;;5058732;28;20041;-75
2022/08/30 02:42:53;;;;;;;3.60;3.30;;;24.20;96.70;;;;;;5044341;28;20061;-75
2022/08/30 02:45:23;;;;;;;4.28;2.90;;;24.20;96.70;;;;;;5048101;28;20063;-75
2022/08/30 02:47:51;;;;;;;4.13;3.05;;;24.30;96.70;;;;;;5057439;28;20403;-75
2022/08/30 02:50:19;;;;;;;5.35;3.22;;;24.10;96.70;;;;;;5038417;28;20052;-75
2022/08/30 02:52:47;;;;;;;3.35;2.70;;;24.10;96.70;;;;;;5055200;28;20040;-75
2022/08/30 02:55:16;;;;;;;3.22;2.80;;;24.00;96.70;;;;;;5027404;28;20685;-75
2022/08/30 02:57:44;;;;;;;4.40;2.80;;;23.90;96.70;;;;;;5057006;28;20041;-74
2022/08/30 03:00:15;;;;;;;3.78;2.80;;;23.80;96.70;;;;;;5036348;28;20142;-75
2022/08/30 03:02:45;;;;;;;3.47;2.95;;;23.70;96.70;;;;;;5057053;28;20594;-75
2022/08/30 03:05:15;;;;;;;4.68;3.17;;;23.60;96.70;;;;;;5040859;28;20044;-75
2022/08/30 03:07:44;;;;;;;3.30;2.90;;;23.50;96.70;;;;;;5054925;28;20048;-75
2022/08/30 03:10:13;;;;;;;4.25;2.80;;;23.60;96.70;;;;;;5052340;28;20124;-74
2022/08/30 03:12:42;;;;;;;3.95;2.92;;;23.70;96.70;;;;;;5060495;28;20518;-75
2022/08/30 03:15:13;;;;;;;3.13;2.85;;;23.80;96.70;;;;;;5054364;28;20044;-75
2022/08/30 03:17:42;;;;;;;6.28;3.10;;;23.80;96.70;;;;;;5056153;28;20041;-75
2022/08/30 03:20:27;;;;;;;3.58;3.05;;;23.90;96.70;;;;;;5042091;28;20414;-76
2022/08/30 03:22:55;;;;;;;3.72;2.80;;;23.90;96.70;;;;;;5051009;28;20108;-75
2022/08/30 03:25:23;;;;;;;3.95;2.72;;;23.80;96.70;;;;;;5041251;28;20053;-75
2022/08/30 03:27:51;;;;;;;3.42;3.13;;;23.90;96.70;;;;;;5033791;28;20068;-75
2022/08/30 03:30:20;;;;;;;5.35;4.15;;;24.00;96.70;;;;;;5041815;28;20048;-75
2022/08/30 03:32:48;;;;;;;4.70;3.42;;;24.00;96.70;;;;;;5026474;28;20053;-75
2022/08/30 03:35:18;;;;;;;5.95;3.45;;;24.00;96.70;;;;;;5043420;28;20056;-75
2022/08/30 03:37:48;;;;;;;4.68;3.40;;;24.00;96.70;;;;;;5053040;28;20547;-76
2022/08/30 03:40:27;;;;;;;6.30;4.25;;;24.00;96.70;;;;;;5058371;28;20568;-79
2022/08/30 03:42:58;;;;;;;4.80;4.20;;;23.90;96.70;;;;;;5026001;28;20063;-79
2022/08/30 03:45:26;;;;;;;4.78;4.00;;;23.80;96.70;;;;;;5059850;28;20037;-78
2022/08/30 03:47:54;;;;;;;7.47;3.85;;;23.60;96.70;;;;;;5023592;28;20074;-78
2022/08/30 03:50:22;;;;;;;5.82;3.97;;;23.60;96.70;;;;;;5023987;28;20068;-79
2022/08/30 03:52:52;;;;;;;5.25;4.03;;;23.60;96.70;;;;;;5038458;28;20136;-78
2022/08/30 03:55:20;;;;;;;5.30;3.95;;;23.60;96.70;;;;;;5057045;28;20482;-78
2022/08/30 03:57:48;;;;;;;5.00;3.88;;;23.50;96.70;;;;;;5050403;28;20033;-77
2022/08/30 04:00:19;;;;;;;7.95;3.83;;;23.60;96.70;;;;;;5057005;28;20059;-78
2022/08/30 04:02:47;;;;;;;4.75;3.83;;;23.60;96.70;;;;;;5055568;28;20040;-78
2022/08/30 04:05:15;;;;;;;5.38;3.75;;;23.70;96.70;;;;;;5034760;28;20048;-78
2022/08/30 04:07:45;;;;;;;3.72;3.40;;;23.80;96.70;;;;;;5040651;28;20042;-79
2022/08/30 04:10:15;;;;;;;6.68;3.85;;;23.80;96.70;;;;;;5039942;28;20427;-78
2022/08/30 04:12:43;;;;;;;6.03;3.83;;;23.70;96.70;;;;;;5019174;28;20426;-78
2022/08/30 04:15:17;;;;;;;4.78;4.05;;;23.80;96.70;;;;;;5057985;28;20072;-79
2022/08/30 04:17:45;;;;;;;7.97;4.40;;;23.80;96.70;;;;;;5037965;28;20045;-78
2022/08/30 04:20:15;;;;;;;5.35;4.43;;;23.60;96.70;;;;;;5035979;28;20477;-78
2022/08/30 04:22:43;;;;;;;5.25;4.82;;;23.50;96.70;;;;;;5040222;28;20122;-78
2022/08/30 04:25:12;;;;;;;6.63;5.35;;;23.60;96.70;;;;;;5057186;28;20120;-78
2022/08/30 04:27:44;;;;;;;6.05;5.45;;;23.50;96.70;;;;;;5053407;28;20064;-78
2022/08/30 04:30:13;;;;;;;6.30;5.75;;;23.60;96.70;;;;;;5050821;28;20538;-78
2022/08/30 04:32:42;;;;;;;6.20;5.18;;;23.50;96.70;;;;;;5040529;28;20055;-78
2022/08/30 04:35:11;;;;;;;5.78;4.82;;;23.60;96.70;;;;;;5044156;28;20047;-78
2022/08/30 04:37:39;;;;;;;5.85;4.30;;;23.60;96.70;;;;;;5043498;28;20543;-78
2022/08/30 04:40:09;;;;;;;6.38;4.45;;;23.80;96.70;;;;;;5044211;28;20048;-78
2022/08/30 04:42:37;;;;;;;6.20;5.18;;;23.80;96.70;;;;;;5021758;28;20044;-79
2022/08/30 04:45:09;;;;;;;7.32;4.75;;;23.80;96.70;;;;;;5035196;28;20044;-78
2022/08/30 04:47:38;;;;;;;6.88;4.68;;;23.90;96.70;;;;;;5041924;28;20070;-79
2022/08/30 04:50:07;;;;;;;7.20;5.85;;;23.90;96.70;;;;;;5039845;28;20596;-79
2022/08/30 04:52:35;;;;;;;9.15;6.47;;;24.00;96.70;;;;;;5036402;28;20151;-78
2022/08/30 04:55:04;;;;;;;6.30;5.70;;;23.90;96.70;;;;;;5026195;28;20045;-78
2022/08/30 04:57:33;;;;;;;7.57;5.80;;;23.90;96.70;;;;;;5054173;28;20044;-78
2022/08/30 05:00:02;;;;;;;8.48;5.78;;;24.00;96.70;;;;;;5027092;28;20051;-79
2022/08/30 05:02:32;;;;;;;8.05;5.45;;;24.00;96.70;;;;;;5063512;28;20144;-79
2022/08/30 05:07:47;;;;;;;6.45;5.20;;;24.00;96.70;;;;;;5054777;28;20072;-79
2022/08/30 05:10:15;;;;;;;5.70;5.20;;;24.10;96.70;;;;;;5045667;28;20173;-79
2022/08/30 05:12:43;;;;;;;5.20;4.70;;;24.10;96.70;;;;;;5041978;28;20048;-79
2022/08/30 05:15:11;;;;;;;4.68;4.28;;;24.10;96.70;;;;;;5042507;28;20047;-78
2022/08/30 05:17:41;;;;;;;4.78;4.38;;;24.20;96.70;;;;;;5044848;28;20040;-79
2022/08/30 05:20:11;;;;;;;4.43;4.03;;;24.20;96.70;;;;;;5045657;28;20231;-78
2022/08/30 05:22:40;;;;;;;4.78;4.20;;;24.10;96.70;;;;;;5040806;28;20461;-79
2022/08/30 05:25:08;;;;;;;4.95;4.05;;;24.20;96.70;;;;;;5024258;28;20073;-79
2022/08/30 05:27:41;;;;;;;8.10;5.00;;;24.10;96.70;;;;;;5026426;28;20055;-79
2022/08/30 05:30:10;;;;;;;5.60;4.75;;;24.10;96.70;;;;;;5059063;28;20095;-79
2022/08/30 05:32:40;;;;;;;5.25;3.97;;;24.20;96.70;;;;;;5045491;28;20059;-78
2022/08/30 05:35:10;;;;;;;4.78;4.38;;;24.20;96.70;;;;;;5029195;28;20640;-78
2022/08/30 05:37:39;;;;;;;7.00;4.78;;;24.10;96.70;;;;;;5053322;28;20049;-79
2022/08/30 05:40:08;;;;;;;6.30;4.82;;;24.20;96.70;;;;;;5054695;28;20045;-78
2022/08/30 05:42:40;;;;;;;5.40;4.70;;;24.20;96.70;;;;;;5030079;28;20049;-79
2022/08/30 05:45:09;;;;;;;7.47;5.15;;;24.10;96.70;;;;;;5042756;28;20147;-79
2022/08/30 05:47:38;;;;;;;7.10;5.13;;;24.10;96.70;;;;;;5027871;28;20048;-79
2022/08/30 05:50:08;;;;;;;6.43;5.03;;;24.20;96.70;;;;;;5060972;28;20106;-79
2022/08/30 05:52:38;;;;;;;5.47;4.97;;;24.30;96.70;;;;;;5024873;28;20048;-79
2022/08/30 05:55:08;;;;;;;5.35;4.82;;;24.40;96.70;;;;;;5044759;28;20499;-79
2022/08/30 05:57:38;;;;;;;7.13;5.05;;;24.50;96.70;;;;;;5050436;28;20041;-79
2022/08/30 06:00:10;;;;;;;7.43;5.60;;;24.40;96.70;;;;;;5043086;28;20051;-79
2022/08/30 06:02:41;;;;;;;6.65;5.13;;;24.40;96.70;;;;;;5057300;28;20116;-79
2022/08/30 06:05:11;;;;;;;6.68;4.70;;;24.50;96.70;;;;;;5059514;28;20593;-79
2022/08/30 06:07:41;;;;;;;6.03;4.15;;;24.50;96.70;;;;;;5037019;28;20144;-78
2022/08/30 06:10:11;;;;;;;4.15;3.75;;;24.70;96.70;;;;;;5039451;28;20040;-78
2022/08/30 06:12:39;;;;;;;5.65;4.07;;;24.80;96.70;;;;;;5054206;28;20047;-78
2022/08/30 06:15:08;;;;;;;4.78;3.90;;;24.80;96.70;;;;;;5039086;28;20048;-77
2022/08/30 06:17:38;;;;;;;5.07;4.15;;;24.80;96.70;;;;;;5056715;28;20045;-76
2022/08/30 06:20:08;;;;;;;7.55;4.45;;;24.90;96.70;;;;;;5052907;28;20111;-77
2022/08/30 06:22:38;;;;;;;6.03;4.47;;;24.90;96.70;;;;;;5052465;28;20132;-76
2022/08/30 06:25:07;;;;;;;5.28;4.18;;;25.00;96.70;;;;;;5037763;28;20052;-76
2022/08/30 06:27:35;;;;;;;5.03;4.40;;;25.00;96.70;;;;;;5052781;28;20102;-76
2022/08/30 06:30:07;;;;;;;4.82;4.32;;;25.00;96.70;;;;;;5038749;28;20126;-76
2022/08/30 06:32:35;;;;;;;5.18;4.07;;;24.90;96.70;;;;;;5041431;28;20125;-80
2022/08/30 06:35:03;;;;;;;6.97;4.88;;;24.90;96.70;;;;;;5046070;28;20458;-79
2022/08/30 06:37:31;;;;;;;4.97;4.40;;;25.00;96.70;;;;;;5040855;28;20048;-78
2022/08/30 06:40:02;;;;;;;7.15;4.13;;;25.10;96.70;;;;;;5059491;28;20067;-78
2022/08/30 06:42:32;;;;;;;4.85;4.40;;;25.20;96.70;;;;;;5057424;28;20580;-80
2022/08/30 06:45:00;;;;;;;6.60;4.35;;;25.20;96.70;;;;;;5041899;28;20040;-80
2022/08/30 06:47:29;;;;;;;8.15;4.25;;;25.30;96.70;;;;;;5040369;28;20595;-76
2022/08/30 06:49:57;;;;;;;8.00;4.75;;;25.30;96.70;;;;;;5021350;28;20045;-78
2022/08/30 06:52:25;;;;;;;5.90;4.00;;;25.40;96.70;;;;;;5042071;28;20102;-77
2022/08/30 06:54:57;;;;;;;4.68;4.28;;;25.40;96.70;;;;;;5055341;28;20040;-77
2022/08/30 06:57:26;;;;;;;4.53;4.13;;;25.50;96.70;;;;;;5022531;28;20609;-78
2022/08/30 06:59:54;;;;;;;6.82;5.10;;;25.50;96.70;;;;;;5056243;28;20044;-77
2022/08/30 07:02:24;;;;;;;5.20;4.22;;;25.50;96.70;;;;;;5039678;28;20072;-77
2022/08/30 07:04:52;;;;;;;6.18;4.70;;;25.50;96.70;;;;;;5026401;28;20076;-77
2022/08/30 07:07:20;;;;;;;6.10;4.72;;;25.50;96.70;;;;;;4968996;28;1445699;-76
2022/08/30 07:09:48;;;;;;;9.57;8.10;;;25.60;96.70;;;;;;5037854;28;20040;-79
2022/08/30 07:12:16;;;;;;;10.55;6.85;;;25.60;96.70;;;;;;5041299;28;20127;-78
2022/08/30 07:14:46;;;;;;;10.93;6.00;;;25.60;96.70;;;;;;5039151;28;20514;-78
2022/08/30 07:20:02;;;;;;;9.70;7.20;;;25.80;96.70;;;;;;5033394;28;20074;-78
2022/08/30 07:22:32;;;;;;;8.05;6.18;;;25.70;96.70;;;;;;5050988;28;20120;-78
2022/08/30 07:25:00;;;;;;;8.85;6.25;;;25.70;96.70;;;;;;5036635;28;20044;-79
2022/08/30 07:27:28;;;;;;;8.60;5.90;;;25.80;96.70;;;;;;5038468;28;20048;-79
2022/08/30 07:29:58;;;;;;;8.68;6.63;;;25.80;96.70;;;;;;5064590;28;20521;-79
2022/08/30 07:32:26;;;;;;;8.60;6.93;;;25.80;96.70;;;;;;5043949;28;20298;-79
2022/08/30 07:34:55;;;;;;;8.77;7.43;;;25.80;96.70;;;;;;5035820;28;20571;-78
2022/08/30 07:37:24;;;;;;;11.57;7.50;;;25.70;96.70;;;;;;5042777;28;20075;-78
2022/08/30 07:39:52;;;;;;;8.70;6.30;;;25.70;96.70;;;;;;5040492;28;20409;-78
2022/08/30 07:42:20;;;;;;;9.65;7.60;;;25.80;96.70;;;;;;5048782;28;20060;-78
2022/08/30 07:44:48;;;;;;;10.05;7.78;;;25.90;96.70;;;;;;5060949;28;20043;-75
2022/08/30 07:47:21;;;;;;;10.23;8.10;;;25.90;96.70;;;;;;5027246;28;20052;-80
2022/08/30 07:49:49;;;;;;;9.25;7.13;;;25.90;96.70;;;;;;5036948;28;20056;-75
2022/08/30 07:52:17;;;;;;;7.72;6.63;;;25.90;96.70;;;;;;5026592;28;20036;-75
2022/08/30 07:54:45;;;;;;;9.30;6.60;;;25.90;96.70;;;;;;5056743;28;20521;-75
2022/08/30 07:57:19;;;;;;;6.43;5.82;;;26.00;96.70;;;;;;5040048;28;20045;-75
2022/08/30 07:59:47;;;;;;;9.48;7.13;;;26.10;96.70;;;;;;5038919;28;20494;-75
2022/08/30 08:02:16;;;;;;;8.25;6.10;;;26.20;96.70;;;;;;5042192;28;20068;-76
2022/08/30 08:04:47;;;;;;;9.57;7.28;;;26.20;96.70;;;;;;5053972;28;20095;-76
2022/08/30 08:07:15;;;;;;;8.48;6.07;;;26.20;96.70;;;;;;5014672;28;20053;-76
2022/08/30 08:09:43;;;;;;;7.30;6.20;;;26.20;96.70;;;;;;5005310;28;20559;-75
2022/08/30 08:12:12;;;;;;;7.15;5.20;;;26.20;96.70;;;;;;5021723;28;20116;-75
2022/08/30 08:14:40;;;;;;;8.13;5.22;;;26.20;96.70;;;;;;5025605;28;20090;-75
2022/08/30 08:17:08;;;;;;;6.60;4.93;;;26.30;96.70;;;;;;5018337;28;20529;-75
2022/08/30 08:19:36;;;;;;;6.93;4.30;;;26.40;96.70;;;;;;5023146;28;20053;-75
2022/08/30 08:22:06;;;;;;;5.75;4.97;;;26.50;96.70;;;;;;5027322;28;20065;-76
2022/08/30 08:24:49;;;;;;;8.95;5.90;;;26.60;96.70;;;;;;5019759;28;20038;-76
2022/08/30 08:27:17;;;;;;;9.75;8.52;;;26.70;96.70;;;;;;5014490;28;20041;-75
2022/08/30 08:29:45;;;;;;;8.77;5.85;;;26.70;96.70;;;;;;5018311;28;20042;-76
2022/08/30 08:32:13;;;;;;;11.57;6.57;;;26.80;96.70;;;;;;5013227;28;20046;-74
2022/08/30 08:34:41;;;;;;;17.90;5.88;;;26.80;96.70;;;;;;5022313;28;20056;-74
2022/08/30 08:37:10;;;;;;;5.72;3.92;;;26.80;96.70;;;;;;5015001;28;20099;-75
2022/08/30 08:39:38;;;;;;;7.82;6.00;;;26.90;96.70;;;;;;5021218;28;20038;-75
2022/08/30 08:42:18;;;;;;;9.13;4.78;;;26.90;96.70;;;;;;5019285;28;20061;-76
2022/08/30 08:44:53;;;;;;;8.98;5.97;;;26.90;96.70;;;;;;5016925;28;20420;-76
2022/08/30 08:47:29;;;;;;;8.30;4.73;;;27.00;96.70;;;;;;5014439;28;20049;-75
2022/08/30 08:50:01;;;;;;;10.60;6.32;;;27.10;96.70;;;;;;5015377;28;20048;-75
2022/08/30 08:53:34;;;;;;;11.63;7.10;;;27.20;96.70;;;;;;5019571;28;20060;-76
2022/08/30 08:55:48;;;;;;;12.10;7.30;;;27.30;96.70;;;;;;5016014;28;20504;-76
2022/08/30 08:58:22;;;;;;;12.70;9.48;;;27.40;96.70;;;;;;5020005;28;20073;-76
2022/08/30 09:00:50;;;;;;;8.07;5.57;;;27.50;96.70;;;;;;5014973;28;20073;-76
2022/08/30 09:03:21;;;;;;;6.68;4.90;;;27.60;96.70;;;;;;5017123;28;20060;-75
2022/08/30 09:05:50;;;;;;;6.75;4.72;;;27.70;96.70;;;;;;5005893;28;20451;-76
2022/08/30 09:08:22;;;;;;;7.07;4.15;;;27.80;96.70;;;;;;5015714;28;20136;-76
2022/08/30 09:10:55;;;;;;;8.95;5.32;;;27.80;96.70;;;;;;5016353;28;20041;-75
2022/08/30 09:13:24;;;;;;;5.53;4.07;;;27.80;96.70;;;;;;5020743;28;20056;-77
2022/08/30 09:15:56;;;;;;;5.13;4.35;;;27.80;96.70;;;;;;5019125;28;20049;-75
2022/08/30 09:18:44;;;;;;;8.38;3.92;;;27.80;96.70;;;;;;5018852;28;20470;-76
2022/08/30 09:21:23;;;;;;;5.82;4.40;;;27.90;96.70;;;;;;5018028;28;20052;-76
2022/08/30 09:23:57;;;;;;;10.52;4.57;;;28.00;96.70;;;;;;5021635;28;20124;-76
2022/08/30 09:26:32;;;;;;;5.72;4.47;;;28.10;96.70;;;;;;5020304;28;20045;-74
2022/08/30 09:29:00;;;;;;;8.05;4.10;;;28.10;96.70;;;;;;5011742;28;20213;-74
2022/08/30 09:31:29;;;;;;;6.57;4.78;;;28.10;96.70;;;;;;5020223;28;20146;-73
2022/08/30 09:34:02;;;;;;;34.10;6.53;;;28.20;96.70;;;;;;5010510;28;20115;-75
2022/08/30 09:36:34;;;;;;;9.85;4.88;;;28.30;96.70;;;;;;5020316;28;20045;-74
2022/08/30 09:39:06;;;;;;;7.88;4.57;;;28.40;96.70;;;;;;5011481;28;20045;-74
2022/08/30 09:41:39;;;;;;;6.68;4.10;;;28.40;96.70;;;;;;5017227;28;20060;-75
2022/08/30 09:44:13;;;;;;;8.05;4.10;;;28.40;96.70;;;;;;5013995;28;20514;-74
2022/08/30 09:46:50;;;;;;;4.85;4.32;;;28.50;96.70;;;;;;5019150;28;20454;-74
2022/08/30 09:49:31;;;;;;;5.95;4.10;;;28.60;96.70;;;;;;5018119;28;20037;-73
2022/08/30 09:52:11;;;;;;;6.90;4.47;;;28.60;96.70;;;;;;5014645;28;20038;-74
2022/08/30 09:54:56;;;;;;;8.00;4.47;;;28.80;96.70;;;;;;5020497;28;20065;-74
2022/08/30 09:57:34;;;;;;;8.55;4.60;;;29.10;96.70;;;;;;5014823;28;20053;-74
2022/08/30 10:00:07;;;;;;;6.72;4.45;;;29.10;96.70;;;;;;5021146;28;20037;-75
2022/08/30 10:03:03;;;;;;;5.82;4.40;;;29.00;96.70;;;;;;5015477;28;20057;-74
2022/08/30 10:05:37;;;;;;;5.88;4.43;;;28.80;96.70;;;;;;5026951;28;20525;-74
2022/08/30 10:08:15;;;;;;;6.30;4.35;;;28.90;96.70;;;;;;5040682;28;20545;-74
2022/08/30 10:10:51;;;;;;;7.85;4.47;;;29.20;96.70;;;;;;5041763;28;20049;-74
2022/08/30 10:13:43;;;;;;;7.32;4.22;;;29.50;96.70;;;;;;5029757;28;20048;-74
2022/08/30 10:16:20;;;;;;;7.05;3.90;;;29.70;96.70;;;;;;5046260;28;20634;-74
2022/08/30 10:18:58;;;;;;;5.00;3.80;;;29.80;96.70;;;;;;5027066;28;20057;-74
2022/08/30 10:21:33;;;;;;;6.75;4.35;;;29.90;96.70;;;;;;5058089;28;20654;-73
2022/08/30 10:24:05;;;;;;;6.32;3.90;;;30.00;96.70;;;;;;5037807;28;20478;-74
2022/08/30 10:26:42;;;;;;;6.80;3.83;;;29.90;96.70;;;;;;5048573;28;20067;-74
2022/08/30 10:29:15;;;;;;;6.03;4.78;;;29.90;96.70;;;;;;5057698;28;20072;-74
2022/08/30 10:31:49;;;;;;;4.80;3.85;;;30.10;96.70;;;;;;5039118;28;20128;-73
2022/08/30 10:34:24;;;;;;;3.72;3.40;;;30.10;96.70;;;;;;5046864;28;20118;-74
2022/08/30 10:36:59;;;;;;;6.00;3.47;;;30.10;96.70;;;;;;5055181;28;20171;-74
2022/08/30 10:39:35;;;;;;;4.55;3.38;;;30.10;96.70;;;;;;5038028;28;20135;-74
2022/08/30 10:42:10;;;;;;;4.05;2.95;;;30.10;96.70;;;;;;5053775;28;20044;-74
2022/08/30 10:44:43;;;;;;;5.55;3.05;;;30.30;96.70;;;;;;5038661;28;20053;-74
2022/08/30 10:47:27;;;;;;;3.25;2.95;;;30.30;96.70;;;;;;5046425;28;20044;-74
2022/08/30 10:50:04;;;;;;;3.78;3.08;;;30.40;96.70;;;;;;5042693;28;20045;-74
2022/08/30 10:52:47;;;;;;;2.95;2.47;;;30.70;96.70;;;;;;5053250;28;20037;-75
2022/08/30 10:55:21;;;;;;;4.43;2.77;;;31.00;96.70;;;;;;5041435;28;20860;-74
2022/08/30 10:57:52;;;;;;;5.78;2.70;;;31.00;96.70;;;;;;5055657;28;20294;-74
2022/08/30 11:00:25;;;;;;;4.70;3.30;;;31.10;96.70;;;;;;5046913;28;20526;-74
2022/08/30 11:03:28;;;;;;;2.42;2.17;;;31.00;96.70;;;;;;5051061;28;20124;-75
2022/08/30 11:06:18;;;;;;;4.78;2.20;;;30.90;96.70;;;;;;5014923;28;20055;-74
2022/08/30 11:09:17;;;;;;;4.07;2.58;;;30.90;96.70;;;;;;5046486;28;20143;-73
2022/08/30 11:12:09;;;;;;;2.75;2.47;;;31.10;96.70;;;;;;5045676;28;20076;-74
2022/08/30 11:14:42;;;;;;;3.00;2.40;;;31.10;96.70;;;;;;5050853;28;20048;-74
2022/08/30 11:17:25;;;;;;;3.50;2.45;;;31.10;96.70;;;;;;5057799;28;20041;-74
2022/08/30 11:19:56;;;;;;;2.45;2.22;;;31.00;96.70;;;;;;5047521;28;20041;-74
2022/08/30 11:22:27;;;;;;;2.72;2.47;;;31.10;96.70;;;;;;5041977;28;20409;-74
2022/08/30 11:25:09;;;;;;;2.78;2.20;;;31.30;96.70;;;;;;5049772;28;20064;-75
2022/08/30 11:27:41;;;;;;;3.75;2.65;;;31.40;96.70;;;;;;5055640;28;20045;-74
2022/08/30 11:30:50;;;;;;;2.55;2.35;;;31.60;96.70;;;;;;5046671;28;20041;-74
2022/08/30 11:33:50;;;;;;;2.53;2.30;;;31.70;96.70;;;;;;5041423;28;20438;-74
2022/08/30 11:37:06;;;;;;;2.92;2.05;;;31.90;96.70;;;;;;5056111;28;20052;-74
2022/08/30 11:40:02;;;;;;;3.05;1.75;;;32.00;96.70;;;;;;5050081;28;20090;-74
2022/08/30 11:42:42;;;;;;;2.78;1.95;;;32.10;96.70;;;;;;5053290;28;20055;-74
2022/08/30 11:45:42;;;;;;;4.20;2.08;;;32.30;96.70;;;;;;5039884;28;20078;-74
2022/08/30 11:48:46;;;;;;;3.15;2.00;;;32.40;96.70;;;;;;5046489;28;20045;-74
2022/08/30 11:51:53;;;;;;;3.10;2.13;;;32.30;96.70;;;;;;5056892;28;20098;-75
2022/08/30 11:54:56;;;;;;;2.75;2.00;;;32.50;96.70;;;;;;5046097;28;20540;-74
2022/08/30 11:57:33;;;;;;;4.60;1.70;;;32.80;96.70;;;;;;5060247;28;20052;-74
2022/08/30 12:00:08;;;;;;;2.55;1.80;;;32.80;96.70;;;;;;5039046;28;20531;-74
2022/08/30 12:02:46;;;;;;;5.03;1.67;;;32.90;96.70;;;;;;5057415;28;20048;-75
2022/08/30 12:05:48;;;;;;;1.58;1.30;;;32.80;96.70;;;;;;5058581;28;20453;-74
2022/08/30 12:08:41;;;;;;;2.92;1.42;;;32.80;96.70;;;;;;5023152;28;20423;-75
2022/08/30 12:12:00;;;;;;;2.33;1.73;;;32.90;96.70;;;;;;5016256;28;20083;-75
2022/08/30 12:14:36;;;;;;;2.55;1.52;;;32.80;96.70;;;;;;5053559;28;20102;-74
2022/08/30 12:20:04;;;;;;;3.17;1.80;;;32.90;96.70;;;;;;5040641;28;20557;-75
2022/08/30 12:22:36;;;;;;;3.78;1.40;;;33.00;96.70;;;;;;5037521;28;20711;-74
2022/08/30 12:25:16;;;;;;;7.63;2.08;;;33.00;96.70;;;;;;5057346;28;20056;-74
2022/08/30 12:27:44;;;;;;;3.08;1.50;;;32.70;96.70;;;;;;5059222;28;20071;-75
2022/08/30 12:30:14;;;;;;;3.17;1.48;;;32.70;96.70;;;;;;5052271;28;20120;-75
2022/08/30 12:32:46;;;;;;;1.75;1.60;;;32.70;96.70;;;;;;5051542;28;20041;-74
2022/08/30 12:35:21;;;;;;;5.15;1.98;;;32.50;96.70;;;;;;5042378;28;20071;-74
2022/08/30 12:38:00;;;;;;;3.35;1.27;;;32.40;96.70;;;;;;5056654;28;20406;-74
2022/08/30 12:40:30;;;;;;;2.22;1.38;;;32.60;96.70;;;;;;5040334;28;20051;-74
2022/08/30 12:43:03;;;;;;;1.83;1.25;;;32.70;96.70;;;;;;5040809;28;20766;-75
2022/08/30 12:45:38;;;;;;;1.50;1.08;;;32.70;96.70;;;;;;5038405;28;20049;-74
2022/08/30 12:48:09;;;;;;;3.05;1.30;;;32.80;96.70;;;;;;5036777;28;20410;-74
2022/08/30 12:50:50;;;;;;;2.55;1.42;;;32.90;96.70;;;;;;5047703;28;20049;-74
2022/08/30 12:53:27;;;;;;;2.22;1.23;;;33.00;96.70;;;;;;5024075;28;20517;-74
2022/08/30 12:55:59;;;;;;;2.17;1.38;;;33.20;96.70;;;;;;5043784;28;20055;-74
2022/08/30 12:58:36;;;;;;;5.88;1.60;;;33.10;96.70;;;;;;5060264;28;20041;-74
2022/08/30 13:01:17;;;;;;;1.98;1.35;;;33.30;96.70;;;;;;5046082;28;20045;-75
2022/08/30 13:03:58;;;;;;;1.55;1.13;;;33.30;96.70;;;;;;5050894;28;20041;-75
2022/08/30 13:06:42;;;;;;;2.17;1.20;;;33.10;96.70;;;;;;5059994;28;20048;-75
2022/08/30 13:09:22;;;;;;;2.17;1.40;;;33.20;96.70;;;;;;5038547;28;20059;-75
2022/08/30 13:11:51;;;;;;;3.22;1.15;;;33.20;96.70;;;;;;5055363;28;20087;-74
2022/08/30 13:14:32;;;;;;;2.28;1.13;;;33.10;96.70;;;;;;5036813;28;20048;-74
2022/08/30 13:17:20;;;;;;;2.17;1.27;;;33.30;96.70;;;;;;5065372;28;20283;-74
2022/08/30 13:20:00;;;;;;;2.28;1.23;;;33.30;96.70;;;;;;5046042;28;20160;-74
2022/08/30 13:22:31;;;;;;;1.80;1.40;;;33.20;96.70;;;;;;5055895;28;20076;-75
2022/08/30 13:25:01;;;;;;;2.75;1.17;;;32.90;96.70;;;;;;5031193;28;20407;-74